createdAt,value
2018-11-06T00:02:13.451Z,96445.00
2018-11-06T00:05:16.047Z,96442.00
2018-11-06T00:07:46.651Z,96444.00
2018-11-06T00:10:16.905Z,96443.00
2018-11-06T00:12:47.103Z,96442.00
2018-11-06T00:15:17.288Z,96446.00
2018-11-06T00:17:47.947Z,96441.00
2018-11-06T00:20:24.798Z,96448.00
2018-11-06T00:23:01.622Z,96442.00
2018-11-06T00:25:32.174Z,96432.00
2018-11-06T00:28:02.774Z,96433.00
2018-11-06T00:30:39.681Z,96428.00
2018-11-06T00:33:16.406Z,96422.00
2018-11-06T00:35:46.596Z,96423.00
2018-11-06T00:38:16.785Z,96427.00
2018-11-06T00:40:46.974Z,96428.00
2018-11-06T00:43:17.221Z,96424.00
2018-11-06T00:45:47.437Z,96427.00
2018-11-06T00:48:17.675Z,96428.00
2018-11-06T00:50:54.424Z,96429.00
2018-11-06T00:53:24.650Z,96430.00
2018-11-06T00:55:54.846Z,96436.00
2018-11-06T00:58:25.078Z,96438.00
2018-11-06T01:00:58.312Z,96438.00
2018-11-06T01:03:33.605Z,96430.00
2018-11-06T01:06:03.834Z,96429.00
2018-11-06T01:08:34.176Z,96432.00
2018-11-06T01:11:04.498Z,96443.00
2018-11-06T01:13:34.722Z,96440.00
2018-11-06T01:16:05.138Z,96439.00
2018-11-06T01:18:35.645Z,96424.00
2018-11-06T01:21:12.878Z,96425.00
2018-11-06T01:23:43.227Z,96427.00
2018-11-06T01:26:13.477Z,96417.00
2018-11-06T01:28:44.057Z,96420.00
2018-11-06T01:31:14.473Z,96416.00
2018-11-06T01:33:44.898Z,96422.00
2018-11-06T01:36:15.121Z,96423.00
2018-11-06T01:38:51.641Z,96427.00
2018-11-06T01:44:50.193Z,96429.00
2018-11-06T01:47:20.294Z,96433.00
2018-11-06T01:49:50.416Z,96431.00
2018-11-06T01:52:20.573Z,96442.00
2018-11-06T01:54:50.761Z,96441.00
2018-11-06T01:57:20.872Z,96439.00
2018-11-06T01:59:50.992Z,96441.00
2018-11-06T02:02:21.073Z,96439.00
2018-11-06T02:04:51.191Z,96439.00
2018-11-06T02:07:21.330Z,96438.00
2018-11-06T02:09:51.451Z,96437.00
2018-11-06T02:12:21.544Z,96425.00
2018-11-06T02:14:51.657Z,96421.00
2018-11-06T02:17:21.772Z,96435.00
2018-11-06T02:19:52.264Z,96433.00
2018-11-06T02:22:22.371Z,96433.00
2018-11-06T02:24:52.477Z,96429.00
2018-11-06T02:27:22.577Z,96431.00
2018-11-06T02:29:52.692Z,96432.00
2018-11-06T02:32:22.862Z,96436.00
2018-11-06T02:34:52.972Z,96438.00
2018-11-06T02:37:23.104Z,96441.00
2018-11-06T02:39:53.192Z,96436.00
2018-11-06T02:42:23.293Z,96429.00
2018-11-06T02:44:53.410Z,96435.00
2018-11-06T02:47:23.505Z,96424.00
2018-11-06T02:49:53.664Z,96433.00
2018-11-06T02:52:23.764Z,96421.00
2018-11-06T02:54:53.861Z,96423.00
2018-11-06T02:57:23.985Z,96424.00
2018-11-06T02:59:54.077Z,96409.00
2018-11-06T03:02:24.194Z,96427.00
2018-11-06T03:04:54.336Z,96434.00
2018-11-06T03:07:24.421Z,96431.00
2018-11-06T03:09:54.544Z,96435.00
2018-11-06T03:12:24.640Z,96431.00
2018-11-06T03:14:54.821Z,96431.00
2018-11-06T03:17:30.165Z,96428.00
2018-11-06T03:26:34.556Z,96429.00
2018-11-06T03:29:55.700Z,96436.00
2018-11-06T03:32:26.474Z,96435.00
2018-11-06T03:34:56.984Z,96433.00
2018-11-06T03:37:27.470Z,96439.00
2018-11-06T03:39:57.868Z,96431.00
2018-11-06T03:42:34.798Z,96437.00
2018-11-06T03:45:05.391Z,96432.00
2018-11-06T03:47:36.019Z,96430.00
2018-11-06T03:50:07.619Z,96431.00
2018-11-06T03:52:37.945Z,96431.00
2018-11-06T03:55:08.288Z,96427.00
2018-11-06T03:57:38.666Z,96432.00
2018-11-06T04:00:12.686Z,96426.00
2018-11-06T04:02:43.671Z,96420.00
2018-11-06T04:05:14.489Z,96418.00
2018-11-06T04:07:52.181Z,96431.00
2018-11-06T04:10:22.853Z,96427.00
2018-11-06T04:12:53.310Z,96419.00
2018-11-06T04:15:23.780Z,96418.00
2018-11-06T04:17:54.505Z,96416.00
2018-11-06T04:20:24.696Z,96416.00
2018-11-06T04:22:54.929Z,96416.00
2018-11-06T04:25:25.150Z,96409.00
2018-11-06T04:27:55.379Z,96416.00
2018-11-06T04:30:25.601Z,96411.00
2018-11-06T04:32:55.911Z,96410.00
2018-11-06T04:35:26.235Z,96404.00
2018-11-06T04:37:56.451Z,96417.00
2018-11-06T04:40:28.620Z,96405.00
2018-11-06T04:42:58.915Z,96407.00
2018-11-06T04:45:29.177Z,96413.00
2018-11-06T04:48:00.330Z,96415.00
2018-11-06T04:50:33.084Z,96416.00
2018-11-06T04:53:04.455Z,96416.00
2018-11-06T04:55:35.082Z,96418.00
2018-11-06T04:58:05.463Z,96421.00
2018-11-06T05:00:35.725Z,96424.00
2018-11-06T05:03:06.132Z,96419.00
2018-11-06T05:05:36.318Z,96417.00
2018-11-06T05:08:06.538Z,96412.00
2018-11-06T05:10:36.755Z,96408.00
2018-11-06T05:13:14.504Z,96422.00
2018-11-06T05:15:44.718Z,96420.00
2018-11-06T05:18:14.963Z,96418.00
2018-11-06T05:20:45.647Z,96421.00
2018-11-06T05:23:16.567Z,96419.00
2018-11-06T05:25:47.500Z,96419.00
2018-11-06T05:28:17.824Z,96426.00
2018-11-06T05:30:48.023Z,96432.00
2018-11-06T05:33:21.120Z,96423.00
2018-11-06T05:35:51.373Z,96427.00
2018-11-06T05:38:21.626Z,96428.00
2018-11-06T05:40:56.331Z,96426.00
2018-11-06T05:43:26.675Z,96421.00
2018-11-06T05:46:03.651Z,96420.00
2018-11-06T05:48:33.869Z,96435.00
2018-11-06T05:51:04.102Z,96429.00
2018-11-06T05:53:40.949Z,96436.00
2018-11-06T05:56:11.128Z,96435.00
2018-11-06T05:58:41.349Z,96442.00
2018-11-06T06:01:11.582Z,96438.00
2018-11-06T06:03:41.755Z,96442.00
2018-11-06T06:06:14.906Z,96445.00
2018-11-06T06:08:45.091Z,96452.00
2018-11-06T06:11:15.446Z,96458.00
2018-11-06T06:13:45.599Z,96463.00
2018-11-06T06:16:16.041Z,96457.00
2018-11-06T06:18:46.307Z,96452.00
2018-11-06T06:21:16.617Z,96460.00
2018-11-06T06:23:47.787Z,96461.00
2018-11-06T06:26:19.816Z,96464.00
2018-11-06T06:28:53.393Z,96470.00
2018-11-06T06:31:28.477Z,96466.00
2018-11-06T06:34:02.094Z,96461.00
2018-11-06T06:36:33.096Z,96466.00
2018-11-06T06:39:05.619Z,96470.00
2018-11-06T06:41:37.742Z,96471.00
2018-11-06T06:44:08.703Z,96467.00
2018-11-06T06:46:40.343Z,96463.00
2018-11-06T06:49:13.955Z,96471.00
2018-11-06T06:51:44.250Z,96475.00
2018-11-06T06:54:17.629Z,96474.00
2018-11-06T06:56:53.850Z,96471.00
2018-11-06T06:59:24.094Z,96471.00
2018-11-06T07:01:54.469Z,96476.00
2018-11-06T07:04:24.691Z,96475.00
2018-11-06T07:06:54.986Z,96472.00
2018-11-06T07:09:31.963Z,96471.00
2018-11-06T07:12:02.207Z,96469.00
2018-11-06T07:14:32.371Z,96464.00
2018-11-06T07:17:02.595Z,96475.00
2018-11-06T07:19:32.915Z,96469.00
2018-11-06T07:22:03.143Z,96475.00
2018-11-06T07:24:33.424Z,96473.00
2018-11-06T07:27:03.621Z,96471.00
2018-11-06T07:29:33.854Z,96467.00
2018-11-06T07:32:05.664Z,96472.00
2018-11-06T07:34:37.002Z,96465.00
2018-11-06T07:37:08.132Z,96468.00
2018-11-06T07:39:39.849Z,96473.00
2018-11-06T07:42:17.113Z,96466.00
2018-11-06T07:44:47.915Z,96470.00
2018-11-06T07:47:18.728Z,96470.00
2018-11-06T07:49:49.060Z,96475.00
2018-11-06T07:52:19.254Z,96461.00
2018-11-06T07:54:49.461Z,96467.00
2018-11-06T07:57:19.662Z,96472.00
2018-11-06T07:59:50.458Z,96476.00
2018-11-06T08:02:20.697Z,96467.00
2018-11-06T08:04:50.897Z,96469.00
2018-11-06T08:07:21.146Z,96475.00
2018-11-06T08:09:51.443Z,96471.00
2018-11-06T08:12:21.546Z,96470.00
2018-11-06T08:14:58.425Z,96474.00
2018-11-06T08:17:28.597Z,96485.00
2018-11-06T08:23:26.908Z,96474.00
2018-11-06T08:25:56.993Z,96476.00
2018-11-06T08:28:27.089Z,96472.00
2018-11-06T08:30:57.409Z,96471.00
2018-11-06T08:33:27.292Z,96470.00
2018-11-06T08:35:57.384Z,96473.00
2018-11-06T08:38:27.553Z,96468.00
2018-11-06T08:40:57.641Z,96469.00
2018-11-06T08:43:27.744Z,96471.00
2018-11-06T08:45:57.850Z,96460.00
2018-11-06T08:48:27.969Z,96461.00
2018-11-06T08:50:58.102Z,96468.00
2018-11-06T08:53:28.265Z,96472.00
2018-11-06T08:55:58.413Z,96464.00
2018-11-06T08:58:28.551Z,96466.00
2018-11-06T09:00:58.648Z,96470.00
2018-11-06T09:03:28.799Z,96457.00
2018-11-06T09:05:58.917Z,96467.00
2018-11-06T09:08:29.032Z,96464.00
2018-11-06T09:10:59.121Z,96462.00
2018-11-06T09:13:29.231Z,96462.00
2018-11-06T09:15:59.332Z,96466.00
2018-11-06T09:18:29.477Z,96458.00
2018-11-06T09:20:59.588Z,96463.00
2018-11-06T09:23:29.689Z,96465.00
2018-11-06T09:25:59.808Z,96465.00
2018-11-06T09:28:29.893Z,96464.00
2018-11-06T09:31:00.057Z,96475.00
2018-11-06T09:33:30.119Z,96470.00
2018-11-06T09:36:00.489Z,96462.00
2018-11-06T09:38:30.589Z,96467.00
2018-11-06T09:41:00.758Z,96476.00
2018-11-06T09:43:30.822Z,96467.00
2018-11-06T09:46:00.936Z,96454.00
2018-11-06T09:48:31.045Z,96463.00
2018-11-06T09:51:01.229Z,96460.00
2018-11-06T09:53:31.356Z,96457.00
2018-11-06T09:56:01.449Z,96467.00
2018-11-06T09:58:31.569Z,96458.00
2018-11-06T10:01:01.694Z,96450.00
2018-11-06T10:03:31.801Z,96451.00
2018-11-06T10:06:01.982Z,96453.00
2018-11-06T10:08:32.027Z,96448.00
2018-11-06T10:11:02.141Z,96443.00
2018-11-06T10:13:32.264Z,96441.00
2018-11-06T10:16:02.380Z,96450.00
2018-11-06T10:18:32.480Z,96440.00
2018-11-06T10:21:02.617Z,96440.00
2018-11-06T10:23:32.705Z,96439.00
2018-11-06T10:26:02.847Z,96437.00
2018-11-06T10:28:33.203Z,96429.00
2018-11-06T10:31:03.342Z,96434.00
2018-11-06T10:33:33.491Z,96426.00
2018-11-06T10:36:03.619Z,96431.00
2018-11-06T10:38:33.719Z,96427.00
2018-11-06T10:41:03.816Z,96426.00
2018-11-06T10:43:33.980Z,96422.00
2018-11-06T10:46:04.112Z,96419.00
2018-11-06T10:48:34.285Z,96420.00
2018-11-06T10:51:04.472Z,96418.00
2018-11-06T10:53:34.617Z,96423.00
2018-11-06T10:56:05.193Z,96411.00
2018-11-06T10:58:35.300Z,96417.00
2018-11-06T11:01:10.932Z,96414.00
2018-11-06T11:04:47.795Z,96408.00
2018-11-06T11:07:17.909Z,96399.00
2018-11-06T11:09:47.999Z,96402.00
2018-11-06T11:12:18.164Z,96393.00
2018-11-06T11:14:48.292Z,96402.00
2018-11-06T11:17:18.414Z,96399.00
2018-11-06T11:19:48.505Z,96395.00
2018-11-06T11:22:18.602Z,96397.00
2018-11-06T11:24:48.717Z,96392.00
2018-11-06T11:27:18.819Z,96394.00
2018-11-06T11:29:48.925Z,96392.00
2018-11-06T11:32:19.016Z,96391.00
2018-11-06T11:34:49.120Z,96389.00
2018-11-06T11:37:19.247Z,96380.00
2018-11-06T11:39:49.354Z,96387.00
2018-11-06T11:42:19.555Z,96383.00
2018-11-06T11:44:49.650Z,96389.00
2018-11-06T11:47:19.825Z,96394.00
2018-11-06T11:49:49.933Z,96388.00
2018-11-06T11:52:20.353Z,96391.00
2018-11-06T11:54:50.483Z,96384.00
2018-11-06T11:57:20.624Z,96384.00
2018-11-06T11:59:50.735Z,96373.00
2018-11-06T12:02:20.868Z,96374.00
2018-11-06T12:04:50.944Z,96380.00
2018-11-06T12:07:21.100Z,96363.00
2018-11-06T12:09:51.197Z,96368.00
2018-11-06T12:12:21.352Z,96360.00
2018-11-06T12:14:51.468Z,96369.00
2018-11-06T12:17:21.732Z,96370.00
2018-11-06T12:19:51.770Z,96362.00
2018-11-06T12:22:21.933Z,96354.00
2018-11-06T12:24:52.209Z,96363.00
2018-11-06T12:27:22.139Z,96372.00
2018-11-06T12:29:52.246Z,96367.00
2018-11-06T12:32:22.384Z,96366.00
2018-11-06T12:34:52.465Z,96355.00
2018-11-06T12:37:22.562Z,96347.00
2018-11-06T12:39:59.285Z,96357.00
2018-11-06T12:42:29.437Z,96349.00
2018-11-06T12:44:59.556Z,96349.00
2018-11-06T12:47:29.677Z,96348.00
2018-11-06T12:50:00.161Z,96345.00
2018-11-06T12:52:30.285Z,96337.00
2018-11-06T12:55:00.379Z,96340.00
2018-11-06T12:57:30.597Z,96330.00
2018-11-06T13:00:00.707Z,96335.00
2018-11-06T13:02:30.821Z,96329.00
2018-11-06T13:05:00.918Z,96333.00
2018-11-06T13:07:31.021Z,96334.00
2018-11-06T13:10:01.232Z,96331.00
2018-11-06T13:12:31.252Z,96336.00
2018-11-06T13:15:01.349Z,96324.00
2018-11-06T13:17:31.576Z,96330.00
2018-11-06T13:20:01.769Z,96330.00
2018-11-06T13:22:31.921Z,96325.00
2018-11-06T13:25:02.018Z,96321.00
2018-11-06T13:27:32.132Z,96318.00
2018-11-06T13:30:02.248Z,96317.00
2018-11-06T13:32:32.449Z,96319.00
2018-11-06T13:35:02.501Z,96329.00
2018-11-06T13:37:32.608Z,96325.00
2018-11-06T13:40:02.721Z,96327.00
2018-11-06T13:42:32.946Z,96326.00
2018-11-06T13:45:03.135Z,96334.00
2018-11-06T13:47:33.118Z,96329.00
2018-11-06T13:50:03.257Z,96323.00
2018-11-06T13:52:33.409Z,96326.00
2018-11-06T13:55:03.640Z,96322.00
2018-11-06T13:57:33.760Z,96317.00
2018-11-06T14:00:04.070Z,96315.00
2018-11-06T14:02:34.197Z,96316.00
2018-11-06T14:05:04.332Z,96319.00
2018-11-06T14:07:35.206Z,96326.00
2018-11-06T14:10:05.809Z,96318.00
2018-11-06T14:12:35.909Z,96323.00
2018-11-06T14:15:06.317Z,96325.00
2018-11-06T14:17:36.560Z,96318.00
2018-11-06T14:20:09.320Z,96315.00
2018-11-06T14:22:39.453Z,96315.00
2018-11-06T14:25:09.718Z,96317.00
2018-11-06T14:27:39.869Z,96326.00
2018-11-06T14:30:12.995Z,96321.00
2018-11-06T14:32:43.132Z,96322.00
2018-11-06T14:35:14.316Z,96325.00
2018-11-06T14:37:45.064Z,96323.00
2018-11-06T14:40:15.837Z,96320.00
2018-11-06T14:42:46.413Z,96318.00
2018-11-06T14:45:17.948Z,96310.00
2018-11-06T14:47:48.133Z,96301.00
2018-11-06T14:50:18.212Z,96307.00
2018-11-06T14:52:48.337Z,96310.00
2018-11-06T14:55:18.452Z,96304.00
2018-11-06T14:57:48.541Z,96309.00
2018-11-06T15:00:19.868Z,96305.00
2018-11-06T15:02:51.226Z,96298.00
2018-11-06T15:05:22.007Z,96298.00
2018-11-06T15:07:52.077Z,96297.00
2018-11-06T15:10:22.216Z,96298.00
2018-11-06T15:12:52.321Z,96297.00
2018-11-06T15:15:22.433Z,96299.00
2018-11-06T15:17:52.533Z,96303.00
2018-11-06T15:20:23.276Z,96292.00
2018-11-06T15:22:53.473Z,96290.00
2018-11-06T15:25:23.572Z,96300.00
2018-11-06T15:27:53.681Z,96297.00
2018-11-06T15:30:23.780Z,96295.00
2018-11-06T15:32:53.897Z,96294.00
2018-11-06T15:35:24.020Z,96285.00
2018-11-06T15:37:54.125Z,96285.00
2018-11-06T15:40:24.245Z,96281.00
2018-11-06T15:42:54.418Z,96279.00
2018-11-06T15:45:24.517Z,96289.00
2018-11-06T15:47:54.644Z,96285.00
2018-11-06T15:50:24.776Z,96289.00
2018-11-06T15:52:54.885Z,96294.00
2018-11-06T15:55:24.996Z,96298.00
2018-11-06T15:57:55.097Z,96298.00
2018-11-06T16:00:25.209Z,96284.00
2018-11-06T16:02:55.311Z,96288.00
2018-11-06T16:05:25.425Z,96298.00
2018-11-06T16:07:55.534Z,96300.00
2018-11-06T16:10:25.699Z,96301.00
2018-11-06T16:12:55.785Z,96306.00
2018-11-06T16:15:25.954Z,96300.00
2018-11-06T16:17:55.992Z,96306.00
2018-11-06T16:20:26.134Z,96312.00
2018-11-06T16:22:56.241Z,96306.00
2018-11-06T16:25:26.376Z,96305.00
2018-11-06T16:27:56.464Z,96310.00
2018-11-06T16:30:26.570Z,96308.00
2018-11-06T16:32:56.656Z,96312.00
2018-11-06T16:35:26.824Z,96304.00
2018-11-06T16:37:56.934Z,96309.00
2018-11-06T16:40:27.060Z,96306.00
2018-11-06T16:42:57.182Z,96295.00
2018-11-06T16:45:27.318Z,96301.00
2018-11-06T16:47:57.417Z,96304.00
2018-11-06T16:50:27.528Z,96305.00
2018-11-06T16:52:57.668Z,96302.00
2018-11-06T16:55:27.777Z,96307.00
2018-11-06T16:57:57.879Z,96297.00
2018-11-06T17:00:28.767Z,96304.00
2018-11-06T17:02:58.701Z,96301.00
2018-11-06T17:05:29.448Z,96305.00
2018-11-06T17:07:59.560Z,96299.00
2018-11-06T17:10:29.661Z,96301.00
2018-11-06T17:12:59.763Z,96298.00
2018-11-06T17:15:29.876Z,96294.00
2018-11-06T17:17:59.992Z,96305.00
2018-11-06T17:20:30.124Z,96302.00
2018-11-06T17:23:00.238Z,96305.00
2018-11-06T17:25:30.463Z,96292.00
2018-11-06T17:28:00.541Z,96295.00
2018-11-06T17:30:31.401Z,96282.00
2018-11-06T17:33:01.494Z,96292.00
2018-11-06T17:35:31.589Z,96288.00
2018-11-06T17:38:01.775Z,96292.00
2018-11-06T17:40:31.900Z,96294.00
2018-11-06T17:43:02.075Z,96295.00
2018-11-06T17:45:32.344Z,96288.00
2018-11-06T17:48:02.448Z,96278.00
2018-11-06T17:50:32.682Z,96285.00
2018-11-06T17:53:09.428Z,96283.00
2018-11-06T17:55:39.689Z,96289.00
2018-11-06T17:58:09.842Z,96289.00
2018-11-06T18:00:40.052Z,96289.00
2018-11-06T18:03:10.132Z,96287.00
2018-11-06T18:05:40.234Z,96285.00
2018-11-06T18:08:10.312Z,96291.00
2018-11-06T18:10:40.546Z,96287.00
2018-11-06T18:13:10.562Z,96294.00
2018-11-06T18:15:40.746Z,96288.00
2018-11-06T18:18:10.837Z,96287.00
2018-11-06T18:20:40.981Z,96281.00
2018-11-06T18:23:11.100Z,96285.00
2018-11-06T18:25:41.557Z,96294.00
2018-11-06T18:28:12.290Z,96288.00
2018-11-06T18:30:42.447Z,96283.00
2018-11-06T18:33:13.013Z,96281.00
2018-11-06T18:35:43.493Z,96298.00
2018-11-06T18:38:14.127Z,96285.00
2018-11-06T18:40:44.958Z,96293.00
2018-11-06T18:43:15.117Z,96284.00
2018-11-06T18:45:45.341Z,96289.00
2018-11-06T18:48:15.477Z,96289.00
2018-11-06T18:50:45.689Z,96292.00
2018-11-06T18:53:15.944Z,96290.00
2018-11-06T18:55:46.299Z,96292.00
2018-11-06T18:58:16.592Z,96297.00
2018-11-06T19:00:46.670Z,96295.00
2018-11-06T19:03:16.812Z,96294.00
2018-11-06T19:05:46.932Z,96298.00
2018-11-06T19:08:17.101Z,96290.00
2018-11-06T19:10:47.295Z,96294.00
2018-11-06T19:13:18.257Z,96297.00
2018-11-06T19:15:48.373Z,96297.00
2018-11-06T19:18:18.549Z,96302.00
2018-11-06T19:20:48.740Z,96307.00
2018-11-06T19:23:19.132Z,96293.00
2018-11-06T19:25:49.385Z,96296.00
2018-11-06T19:28:19.582Z,96299.00
2018-11-06T19:30:49.709Z,96290.00
2018-11-06T19:33:19.968Z,96293.00
2018-11-06T19:35:50.061Z,96282.00
2018-11-06T19:38:20.434Z,96289.00
2018-11-06T19:40:50.561Z,96279.00
2018-11-06T19:43:20.768Z,96286.00
2018-11-06T19:45:51.001Z,96289.00
2018-11-06T19:48:21.366Z,96296.00
2018-11-06T19:50:51.651Z,96296.00
2018-11-06T19:53:22.046Z,96297.00
2018-11-06T19:55:52.386Z,96298.00
2018-11-06T19:58:23.482Z,96305.00
2018-11-06T20:00:54.432Z,96299.00
2018-11-06T20:03:26.381Z,96304.00
2018-11-06T20:05:56.909Z,96307.00
2018-11-06T20:08:27.548Z,96301.00
2018-11-06T20:10:58.586Z,96302.00
2018-11-06T20:13:29.590Z,96306.00
2018-11-06T20:16:01.833Z,96303.00
2018-11-06T20:18:32.746Z,96299.00
2018-11-06T20:21:03.790Z,96302.00
2018-11-06T20:23:34.494Z,96298.00
2018-11-06T20:26:04.981Z,96300.00
2018-11-06T20:28:35.280Z,96292.00
2018-11-06T20:31:06.101Z,96295.00
2018-11-06T20:33:36.699Z,96294.00
2018-11-06T20:36:07.148Z,96302.00
2018-11-06T20:38:37.246Z,96301.00
2018-11-06T20:41:07.475Z,96297.00
2018-11-06T20:43:37.573Z,96299.00
2018-11-06T20:46:07.774Z,96291.00
2018-11-06T20:48:37.840Z,96293.00
2018-11-06T20:51:07.994Z,96294.00
2018-11-06T20:53:38.134Z,96298.00
2018-11-06T20:56:08.339Z,96305.00
2018-11-06T20:58:38.520Z,96294.00
2018-11-06T21:01:09.200Z,96289.00
2018-11-06T21:03:39.512Z,96300.00
2018-11-06T21:06:09.636Z,96293.00
2018-11-06T21:08:40.090Z,96296.00
2018-11-06T21:11:10.426Z,96298.00
2018-11-06T21:13:40.596Z,96298.00
2018-11-06T21:16:10.728Z,96285.00
2018-11-06T21:18:40.815Z,96294.00
2018-11-06T21:21:11.148Z,96298.00
2018-11-06T21:23:41.321Z,96303.00
2018-11-06T21:26:11.533Z,96296.00
2018-11-06T21:28:41.813Z,96292.00
2018-11-06T21:31:12.010Z,96282.00
2018-11-06T21:33:42.148Z,96283.00
2018-11-06T21:36:12.249Z,96285.00
2018-11-06T21:38:42.376Z,96284.00
2018-11-06T21:41:12.628Z,96276.00
2018-11-06T21:43:42.953Z,96289.00
2018-11-06T21:46:13.072Z,96280.00
2018-11-06T21:48:43.448Z,96279.00
2018-11-06T21:51:13.601Z,96284.00
2018-11-06T21:53:43.736Z,96281.00
2018-11-06T21:56:14.082Z,96287.00
2018-11-06T21:58:45.540Z,96281.00
2018-11-06T22:01:15.545Z,96284.00
2018-11-06T22:03:45.656Z,96283.00
2018-11-06T22:06:15.772Z,96291.00
2018-11-06T22:08:46.131Z,96286.00
2018-11-06T22:11:16.272Z,96277.00
2018-11-06T22:13:46.402Z,96275.00
2018-11-06T22:16:16.498Z,96278.00
2018-11-06T22:18:46.605Z,96279.00
2018-11-06T22:21:16.886Z,96278.00
2018-11-06T22:23:47.059Z,96284.00
2018-11-06T22:26:17.213Z,96286.00
2018-11-06T22:28:48.421Z,96285.00
2018-11-06T22:31:18.596Z,96282.00
2018-11-06T22:33:49.807Z,96285.00
2018-11-06T22:36:19.956Z,96280.00
2018-11-06T22:38:53.495Z,96264.00
2018-11-06T22:41:23.610Z,96268.00
2018-11-06T22:43:53.793Z,96266.00
2018-11-06T22:46:23.985Z,96269.00
2018-11-06T22:48:54.120Z,96269.00
2018-11-06T22:51:24.282Z,96265.00
2018-11-06T22:53:54.422Z,96274.00
2018-11-06T22:56:24.548Z,96277.00
2018-11-06T22:58:54.644Z,96278.00
2018-11-06T23:01:25.776Z,96282.00
2018-11-06T23:03:55.983Z,96272.00
2018-11-06T23:06:26.111Z,96265.00
2018-11-06T23:08:56.230Z,96264.00
2018-11-06T23:11:26.430Z,96264.00
2018-11-06T23:13:56.579Z,96261.00
2018-11-06T23:16:26.692Z,96261.00
2018-11-06T23:18:56.804Z,96254.00
2018-11-06T23:21:26.946Z,96262.00
2018-11-06T23:23:57.104Z,96262.00
2018-11-06T23:26:27.239Z,96263.00
2018-11-06T23:29:03.905Z,96263.00
2018-11-06T23:31:34.077Z,96264.00
2018-11-06T23:34:04.185Z,96265.00
2018-11-06T23:36:34.316Z,96265.00
2018-11-06T23:39:06.078Z,96270.00
2018-11-06T23:43:44.894Z,96265.00
2018-11-06T23:46:15.037Z,96267.00
2018-11-06T23:48:45.148Z,96262.00
2018-11-06T23:51:15.605Z,96267.00
2018-11-06T23:53:45.772Z,96267.00
2018-11-06T23:59:33.578Z,96262.00
